Time;durP1;ratioP1;P1;durP2;ratioP2;P2;SDS_P1;SDS_P2;PMS_P1;PMS_P2;Temp;Humidity;BMP_temperature;BMP_pressure;BME280_temperature;BME280_humidity;BME280_pressure;Samples;Min_cycle;Max_cycle;Signal;HPM_P1;HPM_P2
2023/03/19 00:00:09;;;;;;;5.30;2.55;;;;;;;10.90;100.00;100769.06;4911548;29;20035;-87
2023/03/19 00:02:35;;;;;;;3.67;2.80;;;;;;;10.73;100.00;100737.59;4944504;29;20035;-87
2023/03/19 00:05:01;;;;;;;3.88;2.63;;;;;;;10.88;100.00;100758.25;4955675;29;20105;-86
2023/03/19 00:07:27;;;;;;;3.97;3.08;;;;;;;10.82;100.00;100747.78;4903953;29;20046;-87
2023/03/19 00:09:52;;;;;;;5.30;2.50;;;;;;;10.84;100.00;100760.38;4887563;29;20044;-87
2023/03/19 00:12:18;;;;;;;5.43;3.00;;;;;;;10.77;100.00;100745.44;4915504;29;20385;-87
2023/03/19 00:14:43;;;;;;;3.83;2.75;;;;;;;10.82;100.00;100753.25;4911601;29;20085;-87
2023/03/19 00:17:10;;;;;;;3.13;2.42;;;;;;;10.62;100.00;100739.31;4901776;29;20123;-87
2023/03/19 00:19:35;;;;;;;3.90;3.00;;;;;;;10.78;100.00;100765.47;4869485;29;20413;-85
2023/03/19 00:22:01;;;;;;;4.78;3.17;;;;;;;10.71;100.00;100756.88;4853863;29;20045;-86
2023/03/19 00:24:27;;;;;;;3.97;3.15;;;;;;;10.85;100.00;100767.59;4893968;29;20052;-88
2023/03/19 00:26:53;;;;;;;4.53;3.70;;;;;;;10.69;100.00;100761.63;4886834;29;20036;-86
2023/03/19 00:29:19;;;;;;;5.22;3.70;;;;;;;10.67;100.00;100760.84;4888371;29;20488;-86
2023/03/19 00:31:45;;;;;;;5.47;4.05;;;;;;;10.59;100.00;100757.88;4886658;29;20059;-87
2023/03/19 00:34:17;;;;;;;4.80;3.88;;;;;;;10.58;100.00;100753.41;4887756;29;20477;-87
2023/03/19 00:36:42;;;;;;;7.65;4.22;;;;;;;10.69;100.00;100772.59;4880111;29;20500;-86
2023/03/19 00:39:08;;;;;;;7.40;4.47;;;;;;;10.68;100.00;100759.00;4897928;29;20074;-86
2023/03/19 00:41:34;;;;;;;8.13;4.78;;;;;;;10.61;100.00;100764.97;4869650;29;20365;-85
2023/03/19 00:43:59;;;;;;;6.78;4.38;;;;;;;10.66;100.00;100768.22;4900954;29;20080;-85
2023/03/19 00:46:26;;;;;;;5.55;4.20;;;;;;;10.73;100.00;100767.72;4883242;29;20036;-86
2023/03/19 00:48:54;;;;;;;7.53;4.25;;;;;;;10.77;100.00;100760.97;4889711;29;20119;-84
2023/03/19 00:51:20;;;;;;;6.05;4.05;;;;;;;10.76;100.00;100775.69;4873885;29;20039;-85
2023/03/19 00:53:46;;;;;;;7.47;3.75;;;;;;;10.77;100.00;100764.63;4878220;29;20041;-87
2023/03/19 00:56:13;;;;;;;5.65;4.47;;;;;;;10.73;100.00;100763.09;4874073;29;20044;-84
2023/03/19 00:58:40;;;;;;;5.93;4.20;;;;;;;10.80;100.00;100769.81;4891238;29;20034;-86
2023/03/19 01:01:09;;;;;;;4.40;3.60;;;;;;;10.71;100.00;100767.84;4891610;29;20123;-86
2023/03/19 01:03:35;;;;;;;5.82;4.38;;;;;;;10.74;100.00;100769.44;4874999;29;20092;-86
2023/03/19 01:06:01;;;;;;;8.48;4.40;;;;;;;10.75;100.00;100765.72;4873536;29;20067;-86
2023/03/19 01:08:27;;;;;;;6.43;4.15;;;;;;;10.76;100.00;100767.47;4896191;29;20039;-86
2023/03/19 01:10:52;;;;;;;7.60;4.30;;;;;;;10.76;100.00;100776.56;4853992;29;20511;-87
2023/03/19 01:13:18;;;;;;;5.85;4.25;;;;;;;10.77;100.00;100764.63;4867993;29;20524;-86
2023/03/19 01:15:45;;;;;;;6.68;3.72;;;;;;;10.84;100.00;100767.72;4888616;29;20075;-86
2023/03/19 01:18:11;;;;;;;6.30;3.80;;;;;;;10.88;100.00;100769.19;4891125;29;20039;-87
2023/03/19 01:20:39;;;;;;;5.65;3.85;;;;;;;10.84;100.00;100778.69;4891981;29;20387;-86
2023/03/19 01:23:05;;;;;;;5.25;4.00;;;;;;;10.79;100.00;100762.63;4922661;29;20123;-85
2023/03/19 01:25:31;;;;;;;6.68;3.60;;;;;;;10.72;100.00;100766.81;4904735;29;20032;-84
2023/03/19 01:27:56;;;;;;;5.75;3.92;;;;;;;10.52;100.00;100729.25;4904410;29;20032;-86
2023/03/19 01:30:22;;;;;;;6.15;3.75;;;;;;;10.58;100.00;100748.78;4876503;29;20134;-86
2023/03/19 01:32:48;;;;;;;7.32;4.25;;;;;;;10.53;100.00;100747.44;4907057;29;20047;-85
2023/03/19 01:35:14;;;;;;;6.63;4.75;;;;;;;10.64;100.00;100767.47;4889908;29;20047;-85
2023/03/19 01:37:39;;;;;;;11.52;5.15;;;;;;;10.54;100.00;100755.50;4889362;29;20039;-85
2023/03/19 01:40:06;;;;;;;4.45;3.97;;;;;;;10.44;100.00;100755.38;4874507;29;20047;-86
2023/03/19 01:42:32;;;;;;;7.43;4.43;;;;;;;10.57;100.00;100768.09;4922788;29;20032;-85
2023/03/19 01:44:58;;;;;;;5.43;4.22;;;;;;;10.39;100.00;100749.41;4922873;29;20039;-86
2023/03/19 01:47:30;;;;;;;8.50;4.03;;;;;;;10.46;100.00;100755.25;4920116;29;20120;-87
2023/03/19 01:49:57;;;;;;;5.50;3.80;;;;;;;10.52;100.00;100752.03;4906041;29;20069;-85
2023/03/19 01:52:26;;;;;;;6.78;4.13;;;;;;;10.61;100.00;100769.59;4891856;29;20370;-85
2023/03/19 01:54:55;;;;;;;4.88;3.60;;;;;;;10.46;100.00;100742.44;4938393;29;20039;-85
2023/03/19 01:57:22;;;;;;;5.15;4.05;;;;;;;10.58;100.00;100764.38;4919150;29;20036;-84
2023/03/19 01:59:52;;;;;;;6.32;4.28;;;;;;;10.56;100.00;100755.38;4926617;29;20040;-86
2023/03/19 02:02:22;;;;;;;5.68;4.03;;;;;;;10.66;100.00;100761.88;4912185;29;20055;-86
2023/03/19 02:04:52;;;;;;;7.38;4.20;;;;;;;10.65;100.00;100758.25;4905738;29;20036;-87
2023/03/19 02:07:19;;;;;;;4.88;3.88;;;;;;;10.62;100.00;100752.16;4918279;29;20059;-86
2023/03/19 02:09:45;;;;;;;4.22;3.83;;;;;;;10.42;100.00;100721.78;4907598;29;20044;-85
2023/03/19 02:12:11;;;;;;;5.95;4.18;;;;;;;10.42;100.00;100726.41;4908764;29;20036;-86
2023/03/19 02:14:37;;;;;;;5.05;3.97;;;;;;;10.48;100.00;100736.84;4902323;29;20062;-88
2023/03/19 02:17:03;;;;;;;5.88;3.78;;;;;;;10.67;100.00;100763.59;4925343;29;20415;-86
2023/03/19 02:19:39;;;;;;;8.13;4.07;;;;;;;10.58;100.00;100756.16;4909553;29;20044;-87
2023/03/19 02:22:07;;;;;;;6.55;4.68;;;;;;;10.61;100.00;100753.16;4940928;29;20035;-87
2023/03/19 02:24:44;;;;;;;11.50;4.50;;;;;;;10.65;100.00;100755.50;4908561;29;20373;-87
2023/03/19 02:27:09;;;;;;;8.75;4.53;;;;;;;10.48;100.00;100715.81;4922861;29;20028;-86
2023/03/19 02:29:36;;;;;;;5.05;3.95;;;;;;;10.68;100.00;100765.34;4925549;29;20068;-86
2023/03/19 02:32:02;;;;;;;6.25;4.32;;;;;;;10.64;100.00;100762.00;4891525;29;20031;-88
2023/03/19 02:34:32;;;;;;;4.45;3.92;;;;;;;10.69;100.00;100764.38;4885272;29;20169;-87
2023/03/19 02:37:02;;;;;;;4.35;3.90;;;;;;;10.59;100.00;100756.03;4896187;29;20499;-88
2023/03/19 02:39:37;;;;;;;8.65;4.35;;;;;;;10.70;100.00;100765.22;4925621;29;20122;-86
2023/03/19 02:42:04;;;;;;;6.43;4.35;;;;;;;10.70;100.00;100765.22;4901482;29;20476;-86
2023/03/19 02:44:30;;;;;;;8.95;4.30;;;;;;;10.59;100.00;100749.66;4906417;29;20028;-87
2023/03/19 02:46:56;;;;;;;5.55;4.05;;;;;;;10.68;100.00;100768.09;4909634;29;20036;-86
2023/03/19 02:49:21;;;;;;;4.15;3.75;;;;;;;10.60;100.00;100746.78;4892416;29;20042;-87
2023/03/19 02:51:47;;;;;;;7.40;3.80;;;;;;;10.74;100.00;100767.59;4908764;29;20032;-85
2023/03/19 02:54:12;;;;;;;7.07;3.40;;;;;;;10.60;100.00;100754.16;4900795;29;21233;-87
2023/03/19 02:56:39;;;;;;;3.75;3.45;;;;;;;10.64;100.00;100764.72;4892352;29;20040;-87
2023/03/19 02:59:05;;;;;;;4.32;3.63;;;;;;;10.68;100.00;100776.31;4922971;29;20700;-86
2023/03/19 03:01:30;;;;;;;6.28;3.78;;;;;;;10.79;100.00;100780.88;4905955;29;20040;-86
2023/03/19 03:03:56;;;;;;;8.05;5.00;;;;;;;10.71;100.00;100778.78;4889046;29;20409;-86
2023/03/19 03:06:21;;;;;;;4.93;3.53;;;;;;;10.65;100.00;100762.84;4894907;29;20044;-86
2023/03/19 03:08:47;;;;;;;5.05;3.53;;;;;;;10.71;100.00;100773.31;4890824;29;20440;-85
2023/03/19 03:11:12;;;;;;;3.47;3.17;;;;;;;10.77;100.00;100781.03;4917845;29;20558;-86
2023/03/19 03:13:38;;;;;;;4.60;3.25;;;;;;;10.77;100.00;100769.19;4922598;28;20044;-85
2023/03/19 03:16:04;;;;;;;4.60;3.55;;;;;;;10.84;100.00;100778.69;4905523;29;20054;-87
2023/03/19 03:18:30;;;;;;;5.25;3.80;;;;;;;10.78;100.00;100770.94;4893540;29;20036;-85
2023/03/19 03:20:55;;;;;;;4.38;3.40;;;;;;;10.73;100.00;100760.38;4888869;29;20113;-86
2023/03/19 03:23:21;;;;;;;9.15;3.88;;;;;;;10.69;100.00;100761.63;4902205;29;20551;-85
2023/03/19 03:25:50;;;;;;;4.07;3.25;;;;;;;10.73;100.00;100765.84;4873458;29;20040;-84
2023/03/19 03:28:17;;;;;;;4.40;4.00;;;;;;;10.88;100.00;100779.28;4889799;29;20397;-87
2023/03/19 03:30:44;;;;;;;5.32;3.85;;;;;;;10.73;100.00;100767.72;4894654;29;20059;-86
2023/03/19 03:33:09;;;;;;;5.90;3.70;;;;;;;10.73;100.00;100776.78;4898260;29;20051;-86
2023/03/19 03:35:35;;;;;;;8.55;4.03;;;;;;;10.82;100.00;100777.91;4873487;29;20088;-85
2023/03/19 03:38:03;;;;;;;6.78;3.75;;;;;;;10.64;100.00;100762.00;4888384;29;20043;-86
2023/03/19 03:40:28;;;;;;;5.18;3.58;;;;;;;10.67;100.00;100766.34;4903722;29;20036;-85
2023/03/19 03:42:53;;;;;;;5.10;3.58;;;;;;;10.80;100.00;100788.97;4885779;29;20032;-86
2023/03/19 03:45:19;;;;;;;5.22;3.88;;;;;;;10.81;100.00;100801.69;4886420;29;20032;-87
2023/03/19 03:47:45;;;;;;;6.07;3.97;;;;;;;10.75;100.00;100801.31;4873940;29;20047;-84
2023/03/19 03:50:11;;;;;;;7.43;3.80;;;;;;;10.76;100.00;100794.88;4891403;29;20171;-87
2023/03/19 03:52:38;;;;;;;4.60;3.67;;;;;;;10.68;100.00;100772.69;4889886;29;20036;-87
2023/03/19 03:55:04;;;;;;;4.63;3.58;;;;;;;10.83;100.00;100796.09;4905564;29;20067;-87
2023/03/19 03:57:29;;;;;;;6.72;3.95;;;;;;;10.57;100.00;100765.34;4905181;29;20107;-87
2023/03/19 03:59:55;;;;;;;6.68;4.43;;;;;;;10.72;100.00;100772.31;4888290;29;20036;-85
2023/03/19 04:02:21;;;;;;;5.72;4.05;;;;;;;10.85;100.00;100805.94;4886149;29;20421;-80
2023/03/19 04:04:47;;;;;;;8.38;3.92;;;;;;;10.85;100.00;100813.25;4902850;29;20072;-84
2023/03/19 04:07:13;;;;;;;6.72;4.65;;;;;;;10.77;100.00;100794.75;4864487;29;20091;-85
2023/03/19 04:09:38;;;;;;;9.68;4.15;;;;;;;10.80;100.00;100802.69;4889850;29;20032;-86
2023/03/19 04:12:04;;;;;;;5.63;3.90;;;;;;;10.65;100.00;100787.50;4875976;29;20032;-87
2023/03/19 04:14:30;;;;;;;5.65;4.07;;;;;;;10.62;100.00;100777.66;4889566;29;20055;-87
2023/03/19 04:16:56;;;;;;;5.72;3.92;;;;;;;10.78;100.00;100807.41;4869240;29;20663;-87
2023/03/19 04:19:21;;;;;;;7.03;4.65;;;;;;;10.68;100.00;100783.66;4862866;29;20364;-86
2023/03/19 04:21:47;;;;;;;9.23;4.10;;;;;;;10.85;100.00;100816.91;4899088;29;20075;-84
2023/03/19 04:24:13;;;;;;;7.22;4.47;;;;;;;10.73;100.00;100792.38;4896577;29;20063;-86
2023/03/19 04:26:38;;;;;;;7.82;4.47;;;;;;;10.81;100.00;100796.22;4895960;29;20059;-87
2023/03/19 04:29:05;;;;;;;5.43;4.45;;;;;;;10.81;100.00;100803.56;4880561;29;20506;-87
2023/03/19 04:31:30;;;;;;;6.07;3.92;;;;;;;10.71;100.00;100789.75;4906207;29;20033;-87
2023/03/19 04:33:56;;;;;;;9.10;4.38;;;;;;;10.78;100.00;100804.69;4893845;29;20067;-88
2023/03/19 04:36:22;;;;;;;7.68;5.10;;;;;;;10.70;100.00;100782.53;4882181;29;20070;-85
2023/03/19 04:38:47;;;;;;;6.25;5.15;;;;;;;10.78;100.00;100804.69;4912257;29;20068;-87
2023/03/19 04:41:15;;;;;;;8.15;4.43;;;;;;;10.82;100.00;100816.25;4929169;29;20036;-87
2023/03/19 04:43:40;;;;;;;8.23;5.03;;;;;;;10.64;100.00;100791.22;4914357;29;20085;-88
2023/03/19 04:46:07;;;;;;;9.30;4.38;;;;;;;10.75;100.00;100820.50;4898324;29;20032;-88
2023/03/19 04:48:34;;;;;;;8.10;5.35;;;;;;;10.54;100.00;100780.13;4899345;29;20488;-88
2023/03/19 04:51:03;;;;;;;9.05;5.63;;;;;;;10.61;100.00;100797.84;4907417;29;20047;-87
2023/03/19 04:53:29;;;;;;;9.05;5.90;;;;;;;10.66;100.00;100808.44;4908825;29;20036;-87
2023/03/19 04:55:55;;;;;;;8.38;5.22;;;;;;;10.61;100.00;100792.34;4880758;29;20039;-87
2023/03/19 04:58:21;;;;;;;8.40;5.82;;;;;;;10.51;100.00;100788.63;4912822;29;20036;-88
2023/03/19 05:00:46;;;;;;;8.45;6.13;;;;;;;10.54;100.00;100793.81;4891364;29;20033;-87
2023/03/19 05:03:13;;;;;;;7.47;5.97;;;;;;;10.68;100.00;100830.22;4890252;29;20076;-87
2023/03/19 05:05:39;;;;;;;13.23;6.25;;;;;;;10.63;100.00;100833.31;4892427;29;20048;-87
2023/03/19 05:08:04;;;;;;;7.28;5.75;;;;;;;10.53;100.00;100815.88;4895636;29;20067;-88
2023/03/19 05:10:31;;;;;;;7.43;6.00;;;;;;;10.37;100.00;100806.13;4906711;29;20036;-88
2023/03/19 05:12:57;;;;;;;9.07;6.97;;;;;;;10.22;100.00;100794.50;4911124;29;20437;-88
2023/03/19 05:15:22;;;;;;;12.52;7.20;;;;;;;10.35;100.00;100832.75;4925737;29;20103;-88
2023/03/19 05:17:48;;;;;;;10.35;6.70;;;;;;;10.33;100.00;100836.59;4914727;29;20043;-87
2023/03/19 05:20:14;;;;;;;10.52;7.30;;;;;;;10.29;100.00;100835.94;4910353;29;20059;-88
2023/03/19 05:22:40;;;;;;;9.10;7.30;;;;;;;10.24;100.00;100839.03;4924153;29;20039;-87
2023/03/19 05:25:06;;;;;;;11.98;7.60;;;;;;;10.11;100.00;100824.56;4925497;29;20032;-87
2023/03/19 05:27:31;;;;;;;10.25;7.68;;;;;;;10.19;100.00;100841.25;4943017;29;20388;-88
2023/03/19 05:29:57;;;;;;;14.10;8.32;;;;;;;10.06;100.00;100816.72;4893864;29;20033;-86
2023/03/19 05:32:22;;;;;;;16.17;8.68;;;;;;;10.18;100.00;100844.97;4896076;29;20039;-87
2023/03/19 05:34:48;;;;;;;13.68;8.57;;;;;;;10.03;100.00;100814.22;4898435;29;20051;-87
2023/03/19 05:37:13;;;;;;;12.52;8.82;;;;;;;10.12;100.00;100823.59;4919817;29;20040;-88
2023/03/19 05:39:39;;;;;;;12.73;8.82;;;;;;;10.27;100.00;100843.41;4926966;29;20044;-88
2023/03/19 05:42:04;;;;;;;14.32;9.48;;;;;;;10.23;100.00;100834.56;4899697;29;20066;-88
2023/03/19 05:44:30;;;;;;;14.10;9.18;;;;;;;10.33;100.00;100851.16;4927639;29;20067;-86
2023/03/19 05:46:56;;;;;;;21.42;9.80;;;;;;;10.26;100.00;100827.97;4923807;29;20051;-87
2023/03/19 05:49:21;;;;;;;16.92;10.35;;;;;;;10.18;100.00;100834.03;4877734;29;20473;-84
2023/03/19 05:51:47;;;;;;;13.68;9.48;;;;;;;10.30;100.00;100851.38;4912876;29;20032;-87
2023/03/19 05:54:12;;;;;;;14.05;9.80;;;;;;;10.17;100.00;100843.25;4908730;29;20438;-87
2023/03/19 05:56:38;;;;;;;13.77;9.93;;;;;;;10.25;100.00;100862.66;4899541;29;20040;-87
2023/03/19 05:59:04;;;;;;;16.70;10.77;;;;;;;10.26;100.00;100866.28;4930403;29;20113;-87
2023/03/19 06:01:29;;;;;;;12.65;10.13;;;;;;;10.35;100.00;100867.47;4893418;29;20123;-85
2023/03/19 06:03:55;;;;;;;14.55;10.10;;;;;;;10.22;100.00;100851.97;4909028;29;20074;-89
2023/03/19 06:06:20;;;;;;;15.35;9.50;;;;;;;10.36;100.00;100874.66;4905866;29;20019;-89
2023/03/19 06:08:47;;;;;;;16.67;10.50;;;;;;;10.39;100.00;100872.56;4899105;29;20040;-88
2023/03/19 06:11:12;;;;;;;15.77;11.55;;;;;;;10.24;100.00;100849.97;4910801;29;20040;-87
2023/03/19 06:13:38;;;;;;;16.40;11.30;;;;;;;10.36;100.00;100869.19;4919053;28;20094;-84
2023/03/19 06:16:04;;;;;;;16.52;11.05;;;;;;;10.39;100.00;100874.44;4899666;29;20040;-85
2023/03/19 06:18:29;;;;;;;15.52;10.27;;;;;;;10.42;100.00;100886.00;4870720;29;20568;-85
2023/03/19 06:20:55;;;;;;;20.27;10.93;;;;;;;10.43;100.00;100885.03;4889526;29;20066;-86
2023/03/19 06:23:20;;;;;;;17.80;10.65;;;;;;;10.41;100.00;100877.91;4890851;29;20044;-85
2023/03/19 06:25:46;;;;;;;16.85;10.80;;;;;;;10.47;100.00;100870.09;4884332;29;20036;-86
2023/03/19 06:28:15;;;;;;;15.13;10.73;;;;;;;10.56;100.00;100890.41;4871414;29;20111;-85
2023/03/19 06:30:42;;;;;;;16.15;10.38;;;;;;;10.56;100.00;100892.25;4882517;29;20115;-85
2023/03/19 06:33:08;;;;;;;14.30;10.15;;;;;;;10.53;100.00;100887.91;4903835;29;20099;-84
2023/03/19 06:35:33;;;;;;;19.23;10.93;;;;;;;10.45;100.00;100874.81;4873758;29;20505;-85
2023/03/19 06:37:58;;;;;;;14.02;11.23;;;;;;;10.53;100.00;100889.78;4889709;29;20043;-85
2023/03/19 06:40:24;;;;;;;13.77;11.23;;;;;;;10.65;100.00;100895.16;4858182;29;20427;-85
2023/03/19 06:42:49;;;;;;;15.15;11.20;;;;;;;10.60;100.00;100885.56;4871972;29;20044;-86
2023/03/19 06:45:17;;;;;;;22.92;10.68;;;;;;;10.56;100.00;100878.56;4872954;29;20031;-87
2023/03/19 06:47:43;;;;;;;18.98;10.90;;;;;;;10.58;100.00;100895.78;4904723;29;20448;-85
2023/03/19 06:50:11;;;;;;;16.50;10.60;;;;;;;10.59;100.00;100905.72;4905042;29;20119;-84
2023/03/19 06:52:37;;;;;;;17.02;11.18;;;;;;;10.67;100.00;100911.47;4895747;29;20090;-84
2023/03/19 06:55:03;;;;;;;17.15;11.48;;;;;;;10.48;100.00;100903.84;4888766;29;20024;-83
2023/03/19 06:57:28;;;;;;;20.58;12.05;;;;;;;10.52;100.00;100899.00;4885406;29;20047;-83
2023/03/19 06:59:54;;;;;;;17.98;11.90;;;;;;;10.46;100.00;100893.00;4857435;29;20032;-84
2023/03/19 07:02:20;;;;;;;17.67;11.68;;;;;;;10.73;100.00;100907.38;4867862;29;20460;-84
2023/03/19 07:04:45;;;;;;;16.05;11.20;;;;;;;10.68;100.00;100926.91;4898837;29;20139;-81
2023/03/19 07:07:10;;;;;;;15.65;11.52;;;;;;;10.65;100.00;100924.41;4880996;29;20040;-78
2023/03/19 07:09:36;;;;;;;16.58;11.32;;;;;;;10.73;100.00;100929.28;4865920;29;20053;-84
2023/03/19 07:12:02;;;;;;;17.35;12.00;;;;;;;10.75;100.00;100917.22;4895323;29;20070;-81
2023/03/19 07:14:27;;;;;;;16.55;11.98;;;;;;;10.66;100.00;100912.47;4893062;29;20504;-81
2023/03/19 07:16:53;;;;;;;14.48;11.50;;;;;;;10.70;100.00;100918.56;4919584;29;20066;-81
2023/03/19 07:19:18;;;;;;;17.98;11.65;;;;;;;10.71;100.00;100912.09;4936782;29;20040;-78
2023/03/19 07:21:43;;;;;;;15.95;11.85;;;;;;;10.78;100.00;100924.31;4913860;29;20074;-80
2023/03/19 07:24:09;;;;;;;31.02;12.05;;;;;;;10.80;100.00;100923.19;4903559;29;20135;-82
2023/03/19 07:26:34;;;;;;;28.65;11.93;;;;;;;10.88;100.00;100917.09;4892902;29;20043;-82
2023/03/19 07:29:03;;;;;;;22.13;12.05;;;;;;;10.88;100.00;100935.41;4917104;29;20043;-82
2023/03/19 07:31:29;;;;;;;16.65;11.50;;;;;;;10.79;100.00;100920.56;4903991;29;20182;-79
2023/03/19 07:33:56;;;;;;;18.48;12.52;;;;;;;10.80;100.00;100938.75;4900222;29;20256;-80
2023/03/19 07:36:22;;;;;;;17.00;11.45;;;;;;;10.83;100.00;100936.66;4902779;29;20459;-82
2023/03/19 07:38:48;;;;;;;16.83;11.52;;;;;;;10.94;100.00;100945.91;4885153;29;20087;-81
2023/03/19 07:41:20;;;;;;;16.38;11.70;;;;;;;11.09;100.00;100947.41;4919620;29;20035;-84
2023/03/19 07:43:45;;;;;;;18.48;12.07;;;;;;;11.08;100.00;100940.16;4940384;29;20036;-81
2023/03/19 07:46:13;;;;;;;19.30;12.80;;;;;;;11.15;100.00;100952.41;4902088;29;20522;-82
2023/03/19 07:48:40;;;;;;;19.90;11.93;;;;;;;11.16;100.00;100951.38;4872623;29;20086;-80
2023/03/19 07:51:06;;;;;;;20.35;13.50;;;;;;;11.06;100.00;100944.91;4885065;29;21825;-80
2023/03/19 07:53:31;;;;;;;19.25;11.98;;;;;;;11.21;100.00;100949.19;4917525;29;20033;-79
2023/03/19 07:55:57;;;;;;;15.93;11.93;;;;;;;11.25;100.00;100959.88;4886464;29;20036;-80
2023/03/19 07:58:22;;;;;;;19.30;12.48;;;;;;;11.36;100.00;100952.53;4935021;29;20051;-84
2023/03/19 08:00:48;;;;;;;17.35;11.57;;;;;;;11.29;100.00;100955.91;4936113;29;20074;-79
2023/03/19 08:03:13;;;;;;;17.73;12.30;;;;;;;11.34;100.00;100968.22;4920490;29;20143;-81
2023/03/19 08:05:40;;;;;;;18.88;12.25;;;;;;;11.33;100.00;100962.84;4904386;29;20025;-82
2023/03/19 08:08:06;;;;;;;17.13;11.63;;;;;;;11.37;100.00;100967.97;4907238;29;20040;-79
2023/03/19 08:10:33;;;;;;;19.10;11.65;;;;;;;11.32;100.00;100977.59;4899162;29;20027;-77
2023/03/19 08:12:59;;;;;;;15.38;11.50;;;;;;;11.20;100.00;100954.78;4918965;29;20498;-79
2023/03/19 08:15:25;;;;;;;18.52;11.75;;;;;;;11.33;100.00;100979.31;4905014;29;20067;-80
2023/03/19 08:18:03;;;;;;;16.42;10.23;;;;;;;11.24;100.00;100991.91;4895792;29;20110;-79
2023/03/19 08:20:29;;;;;;;16.05;10.95;;;;;;;11.24;100.00;100982.81;4887507;29;20499;-80
2023/03/19 08:22:56;;;;;;;20.17;11.27;;;;;;;11.24;100.00;100994.63;4900984;29;20039;-83
2023/03/19 08:25:22;;;;;;;18.73;11.23;;;;;;;11.30;100.00;100988.66;4933383;29;20047;-80
2023/03/19 08:27:48;;;;;;;18.88;12.20;;;;;;;11.35;100.00;100991.03;4897684;29;20035;-82
2023/03/19 08:30:14;;;;;;;21.50;11.75;;;;;;;11.43;100.00;100996.78;4913001;29;20032;-80
2023/03/19 08:32:40;;;;;;;16.02;10.85;;;;;;;11.26;100.00;100994.50;4887990;29;20114;-82
2023/03/19 08:35:06;;;;;;;17.10;10.77;;;;;;;11.44;100.00;100989.41;4870765;29;20040;-83
2023/03/19 08:37:31;;;;;;;15.40;10.60;;;;;;;11.74;100.00;101005.25;4904901;29;20099;-83
2023/03/19 08:39:57;;;;;;;17.02;9.07;;;;;;;12.25;100.00;100995.63;4886851;29;20044;-81
2023/03/19 08:42:22;;;;;;;15.70;8.73;;;;;;;13.28;100.00;101002.34;4885227;29;20047;-84
2023/03/19 08:44:48;;;;;;;12.07;8.20;;;;;;;13.13;100.00;100990.81;4912530;29;20035;-80
2023/03/19 08:47:15;;;;;;;15.80;8.45;;;;;;;13.59;100.00;101017.91;4930801;29;20102;-86
2023/03/19 08:49:41;;;;;;;14.77;8.25;;;;;;;14.16;100.00;101010.00;4919538;29;20068;-80
2023/03/19 08:52:07;;;;;;;9.35;5.88;;;;;;;14.05;100.00;101007.38;4931871;29;20084;-81
2023/03/19 08:54:32;;;;;;;12.07;6.65;;;;;;;13.93;100.00;101012.09;4886414;29;20036;-82
2023/03/19 08:57:01;;;;;;;11.77;6.45;;;;;;;14.26;100.00;101007.25;4920103;29;20028;-82
2023/03/19 08:59:29;;;;;;;12.43;6.57;;;;;;;14.81;100.00;101017.81;4897679;29;20044;-82
2023/03/19 09:01:54;;;;;;;13.23;6.43;;;;;;;14.38;100.00;101023.66;4909032;29;20036;-84
2023/03/19 09:04:20;;;;;;;12.32;6.35;;;;;;;14.26;100.00;101018.28;4870300;29;20451;-83
2023/03/19 09:06:50;;;;;;;17.55;7.07;;;;;;;13.89;100.00;101021.66;4924519;29;20484;-83
2023/03/19 09:09:24;;;;;;;17.35;7.28;;;;;;;13.76;100.00;101019.16;4926900;29;20036;-82
2023/03/19 09:11:50;;;;;;;15.93;6.13;;;;;;;13.48;100.00;101019.84;4922868;29;20039;-81
2023/03/19 09:14:16;;;;;;;13.80;5.70;;;;;;;13.31;100.00;101024.09;4890272;29;20389;-83
2023/03/19 09:16:42;;;;;;;12.90;5.13;;;;;;;13.35;100.00;101025.59;4886507;29;20404;-83
2023/03/19 09:19:08;;;;;;;10.35;4.50;;;;;;;14.32;100.00;101025.97;4901301;29;20035;-82
2023/03/19 09:21:35;;;;;;;14.82;4.28;;;;;;;14.96;100.00;101029.25;4903357;29;20480;-83
2023/03/19 09:24:03;;;;;;;7.75;3.50;;;;;;;15.34;100.00;101024.69;4920119;29;20028;-84
2023/03/19 09:26:28;;;;;;;11.73;3.80;;;;;;;15.34;100.00;101021.94;4904467;29;20035;-82
2023/03/19 09:28:54;;;;;;;11.05;3.58;;;;;;;15.65;100.00;101026.38;4897470;29;20052;-84
2023/03/19 09:31:21;;;;;;;9.02;3.25;;;;;;;15.73;100.00;101026.50;4889451;29;20549;-84
2023/03/19 09:33:47;;;;;;;9.73;3.67;;;;;;;15.24;100.00;101038.50;4871851;29;21069;-83
2023/03/19 09:36:12;;;;;;;10.63;4.55;;;;;;;15.03;100.00;101038.69;4872579;29;20033;-85
2023/03/19 09:38:38;;;;;;;14.95;5.32;;;;;;;15.10;100.00;101041.72;4890717;29;20445;-82
2023/03/19 09:41:15;;;;;;;9.27;4.28;;;;;;;15.69;100.00;101036.97;4893128;29;20120;-82
2023/03/19 09:44:01;;;;;;;12.63;3.75;;;;;;;15.96;100.00;101043.56;4923330;29;20039;-83
2023/03/19 09:46:36;;;;;;;9.23;3.65;;;;;;;15.79;100.00;101037.84;4880169;29;20047;-83
2023/03/19 09:49:28;;;;;;;9.45;3.40;;;;;;;15.56;100.00;101053.84;4909700;29;20095;-83
2023/03/19 09:51:57;;;;;;;7.15;3.22;;;;;;;15.76;100.00;101046.41;4880457;29;20044;-82
2023/03/19 09:54:45;;;;;;;7.22;3.60;;;;;;;16.22;100.00;101049.25;4887383;29;20044;-82
2023/03/19 09:57:14;;;;;;;10.38;4.13;;;;;;;15.88;100.00;101052.63;4900482;29;20086;-82
2023/03/19 09:59:43;;;;;;;11.57;4.00;;;;;;;15.41;100.00;101052.56;4903287;29;20071;-82
2023/03/19 10:02:27;;;;;;;14.15;5.80;;;;;;;15.56;100.00;101058.50;4885897;29;20514;-81
2023/03/19 10:05:11;;;;;;;13.93;5.00;;;;;;;14.98;100.00;101048.41;4904094;29;20060;-81
2023/03/19 10:08:06;;;;;;;14.10;4.00;;;;;;;14.43;100.00;101051.66;4900713;29;20040;-83
2023/03/19 10:11:14;;;;;;;11.07;3.45;;;;;;;14.41;100.00;101060.06;4899513;29;20111;-81
2023/03/19 10:14:28;;;;;;;9.65;3.45;;;;;;;15.39;100.00;101061.00;4917660;29;20040;-82
2023/03/19 10:16:56;;;;;;;9.48;3.13;;;;;;;14.51;100.00;101055.47;4915376;29;20067;-82
2023/03/19 10:19:37;;;;;;;12.00;3.05;;;;;;;14.99;100.00;101062.06;4912890;29;20075;-80
2023/03/19 10:22:07;;;;;;;12.10;2.80;;;;;;;15.09;100.00;101063.97;4919771;29;20043;-81
2023/03/19 10:24:42;;;;;;;11.13;3.30;;;;;;;14.99;100.00;101066.72;4899065;29;20479;-80
2023/03/19 10:27:20;;;;;;;8.55;2.47;;;;;;;15.50;100.00;101062.72;4924082;29;20048;-81
2023/03/19 10:29:47;;;;;;;12.45;2.55;;;;;;;15.05;100.00;101066.09;4901172;29;20043;-82
2023/03/19 10:32:33;;;;;;;10.00;2.20;;;;;;;15.53;100.00;101075.38;4903762;29;20042;-81
2023/03/19 10:35:26;;;;;;;9.55;2.33;;;;;;;15.27;100.00;101073.22;4916828;29;20033;-82
2023/03/19 10:37:54;;;;;;;11.32;2.33;;;;;;;15.20;100.00;101063.78;4938167;29;20031;-83
2023/03/19 10:40:43;;;;;;;14.30;2.22;;;;;;;15.08;100.00;101068.56;4904308;29;20039;-83
2023/03/19 10:43:19;;;;;;;8.50;2.90;;;;;;;15.28;100.00;101083.22;4904167;29;20158;-82
2023/03/19 10:45:47;;;;;;;7.88;2.65;;;;;;;14.67;100.00;101082.47;4918963;29;20019;-83
2023/03/19 10:48:16;;;;;;;11.10;3.10;;;;;;;14.43;100.00;101068.19;4886139;29;20047;-80
2023/03/19 10:50:51;;;;;;;9.93;2.90;;;;;;;14.40;100.00;101085.88;4908684;29;20035;-81
2023/03/19 10:53:29;;;;;;;5.82;2.53;;;;;;;15.02;100.00;101071.91;4914513;29;20042;-81
2023/03/19 10:56:03;;;;;;;9.70;3.30;;;;;;;15.20;100.00;101081.22;4916957;29;20038;-81
2023/03/19 10:58:32;;;;;;;5.80;2.85;;;;;;;15.75;100.00;101080.53;4924185;29;20035;-81
2023/03/19 11:01:05;;;;;;;10.60;3.00;;;;;;;15.63;100.00;101081.72;4920550;29;20020;-83
2023/03/19 11:03:56;;;;;;;9.18;2.50;;;;;;;16.06;100.00;101073.91;4905754;29;20113;-83
2023/03/19 11:06:31;;;;;;;8.05;2.25;;;;;;;15.37;100.00;101073.22;4912055;29;20079;-84
2023/03/19 11:09:01;;;;;;;4.82;1.92;;;;;;;15.56;100.00;101075.03;4914019;29;20052;-82
2023/03/19 11:11:35;;;;;;;6.40;2.30;;;;;;;15.47;100.00;101085.09;4902270;29;20559;-83
2023/03/19 11:14:24;;;;;;;10.98;2.88;;;;;;;16.27;100.00;101087.50;4904088;29;20115;-83